EKVJ/STA METAR and TAF weather

Enter ICAO airport designator
Station Type Date Time Source
EKVJ METAR 2022/08/12 13:20 UTC NOAA

EKVJ 121320Z 28010KT CAVOK 28/11 Q1022


Station Type Date Time Source
EKVJ Decoded METAR 2022/08/12 13:20 UTC NOAA

Stauning Lufthavn, Denmark (EKVJ) 56-00N 008-21E 5M
Aug 12, 2022 - 09:20 AM EDT / 2022.08.12 1320 UTC
Wind: from the W (280 degrees) at 12 MPH (10 KT):0
Visibility: greater than 7 mile(s):0
Temperature: 82 F (28 C)
Dew Point: 51 F (11 C)
Relative Humidity: 34%
Pressure (altimeter): 30.18 in. Hg (1022 hPa)
ob: EKVJ 121320Z 28010KT CAVOK 28/11 Q1022
cycle: 13

Station Type Date Time Source
EKVJ TAF UTC NOAA

Error!

Example: see airport list